Time,TemperatureF,DewpointF,PressureIn,WindDirection,WindDirectionDegrees,WindSpeedMPH,WindSpeedGustMPH,Humidity,HourlyPrecipIn,Conditions,Clouds,dailyrainin,SoftwareType,DateUTC
2013-08-20 00:57:00,71.4,71.4,30.14,SSE,152,0.0,0.0,100,0.00,,,0.00,Meteorologica,2013-08-20 04:57:00,
2013-08-20 01:00:00,73.7,73.7,30.19,South,170,0.0,0.0,100,0.00,,,0.00,Meteorologica,2013-08-20 05:00:00,
2013-08-20 01:01:00,73.7,73.7,30.19,SSW,200,0.9,0.0,100,0.00,,,0.00,Meteorologica,2013-08-20 05:01:00,
2013-08-20 01:02:00,73.7,73.7,30.19,SSW,211,1.7,0.0,100,0.00,,,0.00,Meteorologica,2013-08-20 05:02:00,
2013-08-20 01:03:00,71.3,71.3,30.14,SSE,152,0.0,0.0,100,0.00,,,0.00,Meteorologica,2013-08-20 05:03:00,
2013-08-20 01:04:00,73.7,73.7,30.19,SSW,201,1.1,0.0,100,0.00,,,0.00,Meteorologica,2013-08-20 05:04:00,
2013-08-20 01:05:00,73.8,73.8,30.19,SSW,203,0.6,2.7,100,0.00,,,0.00,Meteorologica,2013-08-20 05:05:00,
2013-08-20 01:06:00,73.6,73.6,30.19,SSW,203,0.0,2.7,100,0.00,,,0.00,Meteorologica,2013-08-20 05:06:00,
2013-08-20 01:07:00,73.6,73.6,30.19,South,175,0.8,2.7,100,0.00,,,0.00,Meteorologica,2013-08-20 05:07:00,
2013-08-20 01:08:00,71.4,71.4,30.14,SSE,152,0.0,0.0,100,0.00,,,0.00,Meteorologica,2013-08-20 05:08:00,
2013-08-20 01:09:00,73.5,73.5,30.19,South,187,0.4,2.7,100,0.00,,,0.00,Meteorologica,2013-08-20 05:09:00,
2013-08-20 01:10:00,73.5,73.5,30.19,South,184,0.1,1.9,100,0.00,,,0.00,Meteorologica,2013-08-20 05:10:00,
2013-08-20 01:11:00,73.5,73.5,30.19,South,184,0.0,1.9,100,0.00,,,0.00,Meteorologica,2013-08-20 05:11:00,
2013-08-20 01:12:00,73.4,73.4,30.19,South,184,0.0,1.9,100,0.00,,,0.00,Meteorologica,2013-08-20 05:12:00,
2013-08-20 01:13:00,71.3,71.3,30.14,SSE,152,0.0,0.0,100,0.00,,,0.00,Meteorologica,2013-08-20 05:13:00,
2013-08-20 01:14:00,73.4,73.4,30.19,SW,217,1.8,1.9,100,0.00,,,0.00,Meteorologica,2013-08-20 05:14:00,
2013-08-20 01:15:00,73.3,73.3,30.19,SSW,203,1.3,5.3,100,0.00,,,0.00,Meteorologica,2013-08-20 05:15:00,
2013-08-20 01:16:00,73.4,73.4,30.19,SSW,196,0.7,5.3,100,0.00,,,0.00,Meteorologica,2013-08-20 05:16:00,
2013-08-20 01:17:00,73.5,73.5,30.19,SSW,196,0.0,5.3,100,0.00,,,0.00,Meteorologica,2013-08-20 05:17:00,
2013-08-20 01:18:00,71.3,71.3,30.14,SSE,152,0.0,0.0,100,0.00,,,0.00,Meteorologica,2013-08-20 05:18:00,
2013-08-20 01:19:00,73.4,73.4,30.19,SSW,196,0.0,5.3,100,0.00,,,0.00,Meteorologica,2013-08-20 05:19:00,
2013-08-20 01:20:00,73.4,73.4,30.19,SSW,196,0.0,1.5,100,0.00,,,0.00,Meteorologica,2013-08-20 05:20:00,
2013-08-20 01:21:00,73.4,73.4,30.19,SSW,213,0.9,1.5,100,0.00,,,0.00,Meteorologica,2013-08-20 05:21:00,
2013-08-20 01:22:00,73.4,73.4,30.19,South,176,0.3,1.5,100,0.00,,,0.00,Meteorologica,2013-08-20 05:22:00,
2013-08-20 01:23:00,73.5,73.5,30.19,SW,218,0.2,1.5,100,0.00,,,0.00,Meteorologica,2013-08-20 05:23:00,
2013-08-20 01:24:00,71.3,71.3,30.14,SSE,152,0.0,0.0,100,0.00,,,0.00,Meteorologica,2013-08-20 05:24:00,
2013-08-20 01:25:00,73.4,73.4,30.19,SW,236,0.8,1.9,100,0.00,,,0.00,Meteorologica,2013-08-20 05:25:00,
2013-08-20 01:26:00,73.4,73.4,30.19,SSW,210,1.5,1.9,100,0.00,,,0.00,Meteorologica,2013-08-20 05:26:00,
2013-08-20 01:27:00,73.3,73.3,30.19,SSW,207,1.2,1.9,100,0.00,,,0.00,Meteorologica,2013-08-20 05:27:00,
2013-08-20 01:28:00,73.3,73.3,30.19,SSW,207,1.8,1.9,100,0.00,,,0.00,Meteorologica,2013-08-20 05:28:00,
2013-08-20 01:29:00,71.2,71.2,30.14,SSE,152,0.0,0.0,100,0.00,,,0.00,Meteorologica,2013-08-20 05:29:00,
2013-08-20 01:30:00,73.4,73.4,30.19,SSW,203,1.2,3.0,100,0.00,,,0.00,Meteorologica,2013-08-20 05:30:00,
2013-08-20 01:31:00,73.2,73.2,30.19,SSW,206,1.3,3.0,100,0.00,,,0.00,Meteorologica,2013-08-20 05:31:00,
2013-08-20 01:32:00,73.3,73.3,30.19,SSW,194,1.1,3.0,100,0.00,,,0.00,Meteorologica,2013-08-20 05:32:00,
2013-08-20 01:33:00,73.3,73.3,30.19,SSW,194,0.0,3.0,100,0.00,,,0.00,Meteorologica,2013-08-20 05:33:00,
2013-08-20 01:34:00,71.3,71.3,30.14,SSE,152,0.0,0.0,100,0.00,,,0.00,Meteorologica,2013-08-20 05:34:00,
2013-08-20 01:35:00,73.3,73.3,30.19,SSW,193,0.0,2.0,100,0.00,,,0.00,Meteorologica,2013-08-20 05:35:00,
2013-08-20 01:36:00,73.3,73.3,30.19,SSW,193,0.0,2.0,100,0.00,,,0.00,Meteorologica,2013-08-20 05:36:00,
2013-08-20 01:37:00,73.4,73.4,30.19,SSW,193,0.0,2.0,100,0.00,,,0.00,Meteorologica,2013-08-20 05:37:00,
2013-08-20 01:38:00,73.3,73.3,30.19,SSW,193,0.0,2.0,100,0.00,,,0.00,Meteorologica,2013-08-20 05:38:00,
2013-08-20 01:39:00,71.2,71.2,30.14,SSE,152,0.0,0.0,100,0.00,,,0.00,Meteorologica,2013-08-20 05:39:00,
2013-08-20 01:40:00,73.4,73.4,30.19,SSW,193,0.0,0.0,100,0.00,,,0.00,Meteorologica,2013-08-20 05:40:00,
2013-08-20 01:41:00,73.4,73.4,30.19,South,186,0.4,0.0,100,0.00,,,0.00,Meteorologica,2013-08-20 05:41:00,
2013-08-20 01:42:00,73.2,73.2,30.19,SW,223,1.3,0.0,100,0.00,,,0.00,Meteorologica,2013-08-20 05:42:00,
2013-08-20 01:43:00,73.3,73.3,30.19,SSW,208,0.9,0.0,100,0.00,,,0.00,Meteorologica,2013-08-20 05:43:00,
2013-08-20 01:44:00,71.2,71.2,30.14,SSE,152,0.0,0.0,100,0.00,,,0.00,Meteorologica,2013-08-20 05:44:00,
2013-08-20 01:50:00,71.3,71.3,30.14,SSE,152,0.0,0.0,100,0.00,,,0.00,Meteorologica,2013-08-20 05:50:00,
2013-08-20 01:55:00,71.2,71.2,30.13,SSE,152,0.0,0.0,100,0.00,,,0.00,Meteorologica,2013-08-20 05:55:00,
2013-08-20 02:00:00,71.2,71.2,30.13,SSE,152,0.0,0.0,100,0.00,,,0.00,Meteorologica,2013-08-20 06:00:00,
2013-08-20 02:05:00,71.2,71.2,30.14,SE,132,0.0,0.0,100,0.00,,,0.00,Meteorologica,2013-08-20 06:05:00,
2013-08-20 02:10:00,71.2,71.2,30.13,SE,132,0.0,1.3,100,0.00,,,0.00,Meteorologica,2013-08-20 06:10:00,
2013-08-20 02:15:00,71.2,71.2,30.13,SSE,151,0.2,0.0,100,0.00,,,0.00,Meteorologica,2013-08-20 06:15:00,
2013-08-20 02:20:00,71.1,71.1,30.13,SSE,151,0.0,1.0,100,0.00,,,0.00,Meteorologica,2013-08-20 06:20:00,
2013-08-20 02:26:00,71.1,71.1,30.13,SSE,151,0.0,0.0,100,0.00,,,0.00,Meteorologica,2013-08-20 06:26:00,
2013-08-20 02:31:00,71.0,71.0,30.13,SSE,151,0.0,0.0,100,0.00,,,0.00,Meteorologica,2013-08-20 06:31:00,
2013-08-20 02:36:00,71.0,71.0,30.13,SSE,151,0.0,0.0,100,0.00,,,0.00,Meteorologica,2013-08-20 06:36:00,
2013-08-20 02:41:00,70.8,70.8,30.14,SSE,151,0.0,0.0,100,0.00,,,0.00,Meteorologica,2013-08-20 06:41:00,
2013-08-20 02:46:00,70.8,70.8,30.14,SSE,151,0.0,0.0,100,0.00,,,0.00,Meteorologica,2013-08-20 06:46:00,
2013-08-20 02:52:00,70.7,70.7,30.14,SSE,151,0.0,0.0,100,0.00,,,0.00,Meteorologica,2013-08-20 06:52:00,
2013-08-20 02:57:00,70.6,70.6,30.14,SSE,151,0.0,0.0,100,0.00,,,0.00,Meteorologica,2013-08-20 06:57:00,
2013-08-20 03:02:00,70.7,70.7,30.14,SSE,151,0.0,0.0,100,0.00,,,0.00,Meteorologica,2013-08-20 07:02:00,
2013-08-20 03:07:00,70.5,70.5,30.13,SSE,151,0.0,0.0,100,0.00,,,0.00,Meteorologica,2013-08-20 07:07:00,
2013-08-20 03:12:00,70.3,70.3,30.13,SSE,151,0.0,0.0,100,0.00,,,0.00,Meteorologica,2013-08-20 07:12:00,
2013-08-20 03:17:00,70.3,70.3,30.13,SSE,151,0.0,0.0,100,0.00,,,0.00,Meteorologica,2013-08-20 07:17:00,
2013-08-20 03:22:00,70.4,70.4,30.13,SSE,151,0.0,0.0,100,0.00,,,0.00,Meteorologica,2013-08-20 07:22:00,
2013-08-20 03:28:00,70.4,70.4,30.13,SSE,151,0.0,0.0,100,0.00,,,0.00,Meteorologica,2013-08-20 07:28:00,
2013-08-20 03:33:00,70.3,70.3,30.13,SSE,151,0.0,0.0,100,0.00,,,0.00,Meteorologica,2013-08-20 07:33:00,
2013-08-20 03:38:00,70.0,70.0,30.13,SSE,151,0.0,0.0,100,0.00,,,0.00,Meteorologica,2013-08-20 07:38:00,
2013-08-20 03:43:00,70.1,70.1,30.13,SSE,151,0.0,0.0,100,0.00,,,0.00,Meteorologica,2013-08-20 07:43:00,
2013-08-20 03:48:00,70.1,70.1,30.13,SSE,151,0.0,0.0,100,0.00,,,0.00,Meteorologica,2013-08-20 07:48:00,
2013-08-20 03:54:00,70.0,70.0,30.13,SSE,151,0.0,0.0,100,0.00,,,0.00,Meteorologica,2013-08-20 07:54:00,
2013-08-20 03:59:00,69.8,69.8,30.13,SSE,151,0.0,0.0,100,0.00,,,0.00,Meteorologica,2013-08-20 07:59:00,
2013-08-20 04:04:00,69.8,69.8,30.13,SSE,151,0.0,0.0,100,0.00,,,0.00,Meteorologica,2013-08-20 08:04:00,
2013-08-20 04:09:00,69.8,69.8,30.13,SSE,151,0.0,0.0,100,0.00,,,0.00,Meteorologica,2013-08-20 08:09:00,
2013-08-20 04:15:00,69.7,69.7,30.13,SSE,151,0.0,0.0,100,0.00,,,0.00,Meteorologica,2013-08-20 08:15:00,
2013-08-20 04:20:00,69.8,69.8,30.12,SSE,151,0.0,0.0,100,0.00,,,0.00,Meteorologica,2013-08-20 08:20:00,
2013-08-20 04:25:00,69.6,69.6,30.12,SSE,151,0.0,0.0,100,0.00,,,0.00,Meteorologica,2013-08-20 08:25:00,
2013-08-20 04:30:00,69.7,69.7,30.12,SSE,151,0.0,0.0,100,0.00,,,0.00,Meteorologica,2013-08-20 08:30:00,
2013-08-20 04:35:00,69.7,69.7,30.12,SSE,151,0.0,0.0,100,0.00,,,0.00,Meteorologica,2013-08-20 08:35:00,
2013-08-20 04:40:00,69.5,69.5,30.12,SSE,151,0.0,0.0,100,0.00,,,0.00,Meteorologica,2013-08-20 08:40:00,
2013-08-20 04:45:00,69.7,69.7,30.13,SSE,151,0.0,0.0,100,0.00,,,0.00,Meteorologica,2013-08-20 08:45:00,
2013-08-20 04:50:00,69.5,69.5,30.13,SSE,151,0.0,0.0,100,0.00,,,0.00,Meteorologica,2013-08-20 08:50:00,
2013-08-20 04:56:00,69.5,69.5,30.12,SSE,151,0.0,0.0,100,0.00,,,0.00,Meteorologica,2013-08-20 08:56:00,
2013-08-20 05:01:00,69.5,69.5,30.12,SSE,151,0.0,0.0,100,0.00,,,0.00,Meteorologica,2013-08-20 09:01:00,
2013-08-20 05:06:00,69.5,69.5,30.12,SSE,151,0.0,0.0,100,0.00,,,0.00,Meteorologica,2013-08-20 09:06:00,
2013-08-20 05:11:00,69.3,69.3,30.12,SSE,151,0.0,0.0,100,0.00,,,0.00,Meteorologica,2013-08-20 09:11:00,
2013-08-20 05:16:00,69.2,69.2,30.12,SSE,151,0.0,0.0,100,0.00,,,0.00,Meteorologica,2013-08-20 09:16:00,
2013-08-20 05:22:00,69.2,69.2,30.12,SSE,151,0.0,0.0,100,0.00,,,0.00,Meteorologica,2013-08-20 09:22:00,
2013-08-20 05:27:00,69.4,69.4,30.13,SSE,151,0.0,0.0,100,0.00,,,0.00,Meteorologica,2013-08-20 09:27:00,
2013-08-20 05:32:00,69.2,69.2,30.13,SSE,151,0.0,0.0,100,0.00,,,0.00,Meteorologica,2013-08-20 09:32:00,
2013-08-20 05:37:00,69.5,69.5,30.13,SSE,151,0.0,0.0,100,0.00,,,0.00,Meteorologica,2013-08-20 09:37:00,
2013-08-20 05:42:00,69.3,69.3,30.13,SSE,151,0.0,0.0,100,0.00,,,0.00,Meteorologica,2013-08-20 09:42:00,
2013-08-20 05:47:00,69.3,69.3,30.13,SSE,151,0.0,0.0,100,0.00,,,0.00,Meteorologica,2013-08-20 09:47:00,
2013-08-20 05:53:00,69.3,69.3,30.13,SSE,151,0.0,0.0,100,0.00,,,0.00,Meteorologica,2013-08-20 09:53:00,
2013-08-20 05:58:00,69.4,69.4,30.13,SSE,151,0.0,0.0,100,0.00,,,0.00,Meteorologica,2013-08-20 09:58:00,
2013-08-20 06:03:00,69.5,69.5,30.13,SSE,151,0.0,0.0,100,0.00,,,0.00,Meteorologica,2013-08-20 10:03:00,
2013-08-20 06:08:00,69.4,69.4,30.13,SSE,151,0.0,0.0,100,0.00,,,0.00,Meteorologica,2013-08-20 10:08:00,
2013-08-20 06:13:00,69.5,69.5,30.13,SSE,151,0.0,0.0,100,0.00,,,0.00,Meteorologica,2013-08-20 10:13:00,
2013-08-20 06:18:00,69.5,69.5,30.13,SSE,151,0.0,0.0,100,0.00,,,0.00,Meteorologica,2013-08-20 10:18:00,
2013-08-20 06:23:00,69.4,69.4,30.13,SSE,151,0.0,0.0,100,0.00,,,0.00,Meteorologica,2013-08-20 10:23:00,
2013-08-20 06:29:00,69.5,69.5,30.13,SSE,151,0.0,0.0,100,0.00,,,0.00,Meteorologica,2013-08-20 10:29:00,
2013-08-20 06:34:00,69.4,69.4,30.14,SSE,151,0.0,0.0,100,0.00,,,0.00,Meteorologica,2013-08-20 10:34:00,
2013-08-20 06:39:00,69.4,69.4,30.14,SSE,151,0.0,0.0,100,0.00,,,0.00,Meteorologica,2013-08-20 10:39:00,
2013-08-20 06:44:00,69.4,69.4,30.14,SSE,151,0.0,0.0,100,0.00,,,0.00,Meteorologica,2013-08-20 10:44:00,
2013-08-20 06:50:00,69.2,69.2,30.14,SSE,151,0.0,0.0,100,0.00,,,0.00,Meteorologica,2013-08-20 10:50:00,
2013-08-20 06:55:00,69.1,69.1,30.14,SSE,151,0.0,0.0,100,0.00,,,0.00,Meteorologica,2013-08-20 10:55:00,
2013-08-20 07:00:00,68.9,68.9,30.14,SSE,151,0.0,0.0,100,0.00,,,0.00,Meteorologica,2013-08-20 11:00:00,
2013-08-20 07:05:00,69.0,69.0,30.15,SSE,151,0.0,0.0,100,0.00,,,0.00,Meteorologica,2013-08-20 11:05:00,
2013-08-20 07:10:00,68.9,68.9,30.15,SSE,151,0.0,0.0,100,0.00,,,0.00,Meteorologica,2013-08-20 11:10:00,
2013-08-20 07:15:00,68.8,68.8,30.15,SSE,151,0.0,0.0,100,0.00,,,0.00,Meteorologica,2013-08-20 11:15:00,
2013-08-20 07:20:00,68.7,68.7,30.15,SSE,151,0.0,0.0,100,0.00,,,0.00,Meteorologica,2013-08-20 11:20:00,
2013-08-20 07:25:00,68.6,68.6,30.15,SSE,151,0.0,0.0,100,0.00,,,0.00,Meteorologica,2013-08-20 11:25:00,
2013-08-20 07:31:00,68.7,68.7,30.15,SSE,151,0.0,0.0,100,0.00,,,0.00,Meteorologica,2013-08-20 11:31:00,
2013-08-20 07:36:00,68.7,68.7,30.15,SSE,151,0.0,0.0,100,0.00,,,0.00,Meteorologica,2013-08-20 11:36:00,
2013-08-20 07:41:00,68.6,68.6,30.16,SSE,151,0.0,0.0,100,0.00,,,0.00,Meteorologica,2013-08-20 11:41:00,
2013-08-20 07:47:00,68.6,68.6,30.16,SSE,151,0.0,0.0,100,0.00,,,0.00,Meteorologica,2013-08-20 11:47:00,
2013-08-20 07:52:00,68.9,68.9,30.16,SSE,151,0.0,0.0,100,0.00,,,0.00,Meteorologica,2013-08-20 11:52:00,
2013-08-20 07:57:00,68.8,68.8,30.16,SSE,151,0.0,0.0,100,0.00,,,0.00,Meteorologica,2013-08-20 11:57:00,
2013-08-20 08:02:00,68.9,68.9,30.16,SSE,151,0.0,0.0,100,0.00,,,0.00,Meteorologica,2013-08-20 12:02:00,
2013-08-20 08:07:00,68.9,68.9,30.16,SSE,151,0.0,0.0,100,0.00,,,0.00,Meteorologica,2013-08-20 12:07:00,
2013-08-20 08:12:00,69.0,69.0,30.16,SSE,151,0.0,0.0,100,0.00,,,0.00,Meteorologica,2013-08-20 12:12:00,
2013-08-20 08:17:00,69.4,69.4,30.16,SSE,151,0.0,0.0,100,0.00,,,0.00,Meteorologica,2013-08-20 12:17:00,
2013-08-20 08:22:00,69.5,69.5,30.16,SSE,151,0.0,0.0,100,0.00,,,0.00,Meteorologica,2013-08-20 12:22:00,
2013-08-20 08:28:00,69.5,69.5,30.17,SSE,151,0.0,0.0,100,0.00,,,0.00,Meteorologica,2013-08-20 12:28:00,
2013-08-20 08:33:00,69.9,69.9,30.17,SSE,151,0.0,0.0,100,0.00,,,0.00,Meteorologica,2013-08-20 12:33:00,
2013-08-20 08:38:00,70.0,70.0,30.17,SSE,151,0.0,0.0,100,0.00,,,0.00,Meteorologica,2013-08-20 12:38:00,
2013-08-20 08:43:00,70.2,70.2,30.16,SSE,151,0.0,0.0,100,0.00,,,0.00,Meteorologica,2013-08-20 12:43:00,
2013-08-20 08:49:00,70.4,70.4,30.17,SSE,151,0.0,0.0,100,0.00,,,0.00,Meteorologica,2013-08-20 12:49:00,
2013-08-20 08:54:00,70.4,70.4,30.17,SSE,151,0.0,0.0,100,0.00,,,0.00,Meteorologica,2013-08-20 12:54:00,
2013-08-20 08:59:00,70.6,70.6,30.17,SSE,151,0.0,0.0,100,0.00,,,0.00,Meteorologica,2013-08-20 12:59:00,
2013-08-20 09:04:00,70.6,70.6,30.17,SSE,151,0.0,0.0,100,0.00,,,0.00,Meteorologica,2013-08-20 13:04:00,
2013-08-20 09:09:00,70.9,70.9,30.18,SSE,151,0.0,0.0,100,0.00,,,0.00,Meteorologica,2013-08-20 13:09:00,
2013-08-20 09:14:00,71.1,71.1,30.18,SSE,151,0.0,0.0,100,0.00,,,0.00,Meteorologica,2013-08-20 13:14:00,
2013-08-20 09:19:00,71.2,71.2,30.18,SSE,151,0.0,0.0,100,0.00,,,0.00,Meteorologica,2013-08-20 13:19:00,
2013-08-20 09:25:00,71.4,71.4,30.18,SSE,151,0.0,0.0,100,0.00,,,0.00,Meteorologica,2013-08-20 13:25:00,
2013-08-20 09:30:00,71.3,71.3,30.19,SSE,151,0.0,0.0,100,0.00,,,0.00,Meteorologica,2013-08-20 13:30:00,
2013-08-20 09:35:00,71.5,71.5,30.19,SSE,151,0.0,0.0,100,0.00,,,0.00,Meteorologica,2013-08-20 13:35:00,
2013-08-20 09:40:00,71.6,71.6,30.19,SSE,151,0.0,0.0,100,0.00,,,0.00,Meteorologica,2013-08-20 13:40:00,
2013-08-20 09:45:00,71.7,71.7,30.19,SSE,151,0.0,0.0,100,0.00,,,0.00,Meteorologica,2013-08-20 13:45:00,
2013-08-20 09:50:00,71.9,71.9,30.19,ENE,74,0.0,0.0,100,0.00,,,0.00,Meteorologica,2013-08-20 13:50:00,
2013-08-20 09:55:00,71.9,71.9,30.19,ENE,74,0.0,1.6,100,0.00,,,0.00,Meteorologica,2013-08-20 13:55:00,
2013-08-20 10:01:00,72.1,72.1,30.19,ENE,74,0.0,0.0,100,0.00,,,0.00,Meteorologica,2013-08-20 14:01:00,
2013-08-20 10:06:00,72.0,72.0,30.19,ENE,74,0.0,0.0,100,0.00,,,0.00,Meteorologica,2013-08-20 14:06:00,
2013-08-20 10:11:00,72.1,72.1,30.19,ENE,74,0.0,0.0,100,0.00,,,0.00,Meteorologica,2013-08-20 14:11:00,
2013-08-20 10:16:00,72.4,72.4,30.19,NE,38,2.5,0.0,100,0.00,,,0.00,Meteorologica,2013-08-20 14:16:00,
2013-08-20 10:21:00,72.6,72.6,30.19,ESE,119,0.7,4.6,100,0.00,,,0.00,Meteorologica,2013-08-20 14:21:00,
2013-08-20 10:26:00,73.0,73.0,30.19,South,187,1.3,4.5,100,0.00,,,0.00,Meteorologica,2013-08-20 14:26:00,
2013-08-20 10:31:00,73.2,73.2,30.19,SSW,205,2.2,3.9,100,0.00,,,0.00,Meteorologica,2013-08-20 14:31:00,
2013-08-20 10:37:00,73.6,73.6,30.20,SW,214,0.0,3.6,100,0.00,,,0.00,Meteorologica,2013-08-20 14:37:00,
2013-08-20 11:00:00,75.0,75.0,30.20,SE,124,2.5,4.8,100,0.00,,,0.00,Meteorologica,2013-08-20 15:00:00,
2013-08-20 11:05:00,75.3,75.3,30.20,NE,46,0.0,4.0,100,0.00,,,0.00,Meteorologica,2013-08-20 15:05:00,
2013-08-20 11:10:00,75.7,75.7,30.20,SW,227,1.1,0.0,100,0.00,,,0.00,Meteorologica,2013-08-20 15:10:00,
2013-08-20 11:15:00,75.9,75.9,30.20,SW,220,2.1,2.9,100,0.00,,,0.00,Meteorologica,2013-08-20 15:15:00,
2013-08-20 11:20:00,75.9,75.9,30.20,SE,136,0.0,4.5,100,0.00,,,0.00,Meteorologica,2013-08-20 15:20:00,
2013-08-20 11:25:00,76.1,76.1,30.20,SE,136,0.0,4.7,100,0.00,,,0.00,Meteorologica,2013-08-20 15:25:00,
2013-08-20 11:30:00,76.1,76.1,30.20,East,85,2.8,2.8,100,0.00,,,0.00,Meteorologica,2013-08-20 15:30:00,
2013-08-20 11:35:00,76.1,76.1,30.21,SSW,210,0.9,3.7,100,0.00,,,0.00,Meteorologica,2013-08-20 15:35:00,
2013-08-20 11:41:00,76.2,76.2,30.21,SSW,196,0.6,2.8,100,0.00,,,0.00,Meteorologica,2013-08-20 15:41:00,
2013-08-20 11:46:00,76.0,76.0,30.21,SW,217,0.8,1.2,100,0.00,,,0.00,Meteorologica,2013-08-20 15:46:00,
2013-08-20 11:51:00,76.1,76.1,30.21,SSW,194,0.3,2.4,100,0.00,,,0.00,Meteorologica,2013-08-20 15:51:00,
2013-08-20 11:56:00,76.1,76.1,30.21,SSW,206,0.6,1.5,100,0.00,,,0.00,Meteorologica,2013-08-20 15:56:00,
2013-08-20 12:01:00,76.2,76.2,30.21,WSW,245,0.1,1.6,100,0.00,,,0.00,Meteorologica,2013-08-20 16:01:00,
2013-08-20 12:06:00,76.0,76.0,30.21,SSW,209,0.1,0.7,100,0.00,,,0.00,Meteorologica,2013-08-20 16:06:00,
2013-08-20 12:11:00,76.1,76.1,30.21,SSE,153,0.1,2.0,100,0.00,,,0.00,Meteorologica,2013-08-20 16:11:00,
2013-08-20 12:16:00,76.2,76.2,30.21,WSW,256,1.6,2.5,100,0.00,,,0.00,Meteorologica,2013-08-20 16:16:00,
2013-08-20 12:21:00,76.5,76.5,30.21,South,182,0.9,3.0,100,0.00,,,0.00,Meteorologica,2013-08-20 16:21:00,
2013-08-20 12:26:00,76.5,76.5,30.21,SSW,211,1.4,3.7,100,0.00,,,0.00,Meteorologica,2013-08-20 16:26:00,
2013-08-20 12:31:00,76.6,76.6,30.21,SSW,203,1.3,3.5,100,0.00,,,0.00,Meteorologica,2013-08-20 16:31:00,
2013-08-20 12:36:00,76.6,76.6,30.21,SE,134,0.1,3.5,100,0.00,,,0.00,Meteorologica,2013-08-20 16:36:00,
2013-08-20 12:41:00,76.7,76.7,30.21,South,170,1.0,2.4,100,0.00,,,0.00,Meteorologica,2013-08-20 16:41:00,
2013-08-20 12:46:00,76.7,76.7,30.21,SSW,194,0.2,3.0,100,0.00,,,0.00,Meteorologica,2013-08-20 16:46:00,
2013-08-20 12:51:00,77.0,77.0,30.21,SSW,204,1.6,3.6,100,0.00,,,0.00,Meteorologica,2013-08-20 16:51:00,
2013-08-20 12:56:00,76.9,76.9,30.20,WSW,258,0.0,3.2,100,0.00,,,0.00,Meteorologica,2013-08-20 16:56:00,
2013-08-20 13:01:00,77.1,77.1,30.20,NE,56,0.6,1.5,100,0.00,,,0.00,Meteorologica,2013-08-20 17:01:00,
2013-08-20 13:06:00,77.2,77.2,30.20,South,187,1.9,3.1,100,0.00,,,0.00,Meteorologica,2013-08-20 17:06:00,
2013-08-20 13:11:00,77.8,77.8,30.20,ESE,115,0.0,4.6,100,0.00,,,0.00,Meteorologica,2013-08-20 17:11:00,
2013-08-20 13:16:00,78.7,76.5,30.20,SW,215,2.5,3.3,93,0.00,,,0.00,Meteorologica,2013-08-20 17:16:00,
2013-08-20 13:22:00,79.3,76.1,30.19,SSW,195,1.1,4.6,90,0.00,,,0.00,Meteorologica,2013-08-20 17:22:00,
2013-08-20 13:26:00,79.9,72.6,30.19,SW,228,3.0,4.3,78,0.00,,,0.00,Meteorologica,2013-08-20 17:26:00,
2013-08-20 13:31:00,80.1,73.8,30.19,WSW,256,2.4,6.0,79,0.00,,,0.00,Meteorologica,2013-08-20 17:31:00,
2013-08-20 13:37:00,80.2,73.5,30.19,SSW,200,0.0,5.6,78,0.00,,,0.00,Meteorologica,2013-08-20 17:37:00,
2013-08-20 13:42:00,80.3,74.9,30.19,East,91,2.4,2.4,83,0.00,,,0.00,Meteorologica,2013-08-20 17:42:00,
2013-08-20 13:47:00,80.4,73.0,30.19,East,98,2.8,6.8,77,0.00,,,0.00,Meteorologica,2013-08-20 17:47:00,
2013-08-20 13:52:00,80.6,72.6,30.18,SW,228,2.7,5.7,76,0.00,,,0.00,Meteorologica,2013-08-20 17:52:00,
2013-08-20 13:57:00,80.9,73.5,30.18,WSW,239,0.0,6.6,78,0.00,,,0.00,Meteorologica,2013-08-20 17:57:00,
2013-08-20 14:02:00,80.4,73.1,30.18,ENE,77,0.4,2.9,78,0.00,,,0.00,Meteorologica,2013-08-20 18:02:00,
2013-08-20 14:07:00,80.4,73.3,30.17,ENE,77,0.0,5.0,78,0.00,,,0.00,Meteorologica,2013-08-20 18:07:00,
2013-08-20 14:12:00,80.4,74.3,30.17,SE,129,1.4,0.0,81,0.00,,,0.00,Meteorologica,2013-08-20 18:12:00,
2013-08-20 14:17:00,80.7,74.4,30.17,SSW,202,1.8,5.0,80,0.00,,,0.00,Meteorologica,2013-08-20 18:17:00,
2013-08-20 14:22:00,81.3,71.7,30.17,SSW,201,4.8,5.7,72,0.00,,,0.00,Meteorologica,2013-08-20 18:22:00,
2013-08-20 14:27:00,82.0,72.2,30.16,SW,223,0.1,9.2,71,0.00,,,0.00,Meteorologica,2013-08-20 18:27:00,
2013-08-20 14:32:00,82.1,72.4,30.16,South,169,1.6,4.5,72,0.00,,,0.00,Meteorologica,2013-08-20 18:32:00,
2013-08-20 14:37:00,82.5,72.6,30.16,South,179,2.0,6.4,71,0.00,,,0.00,Meteorologica,2013-08-20 18:37:00,
2013-08-20 14:42:00,82.6,71.3,30.16,SW,226,6.6,8.0,68,0.00,,,0.00,Meteorologica,2013-08-20 18:42:00,
2013-08-20 14:47:00,83.0,73.2,30.16,SW,232,2.4,8.5,71,0.00,,,0.00,Meteorologica,2013-08-20 18:47:00,
2013-08-20 14:52:00,83.1,71.4,30.16,SSE,165,4.0,6.6,67,0.00,,,0.00,Meteorologica,2013-08-20 18:52:00,
2013-08-20 14:57:00,83.4,72.2,30.16,SSE,158,2.7,6.2,68,0.00,,,0.00,Meteorologica,2013-08-20 18:57:00,
2013-08-20 15:02:00,83.4,72.6,30.15,ESE,105,2.1,5.8,69,0.00,,,0.00,Meteorologica,2013-08-20 19:02:00,
2013-08-20 15:07:00,83.9,72.7,30.15,East,97,2.3,5.2,68,0.00,,,0.00,Meteorologica,2013-08-20 19:07:00,
2013-08-20 15:12:00,83.7,71.6,30.15,South,188,3.2,7.9,66,0.00,,,0.00,Meteorologica,2013-08-20 19:12:00,
2013-08-20 15:17:00,83.6,71.9,30.15,SW,234,1.7,6.1,67,0.00,,,0.00,Meteorologica,2013-08-20 19:17:00,
2013-08-20 15:22:00,83.5,72.0,30.15,SE,126,1.6,5.0,67,0.00,,,0.00,Meteorologica,2013-08-20 19:22:00,
2013-08-20 15:27:00,83.4,71.5,30.15,SSW,208,3.2,3.2,66,0.00,,,0.00,Meteorologica,2013-08-20 19:27:00,
2013-08-20 15:32:00,83.7,71.2,30.14,SW,219,4.8,5.5,65,0.00,,,0.00,Meteorologica,2013-08-20 19:32:00,
2013-08-20 15:37:00,83.9,71.1,30.14,South,188,3.8,8.1,64,0.00,,,0.00,Meteorologica,2013-08-20 19:37:00,
2013-08-20 15:42:00,84.2,70.6,30.14,SSW,211,2.7,5.8,63,0.00,,,0.00,Meteorologica,2013-08-20 19:42:00,
2013-08-20 15:47:00,84.5,71.3,30.13,SSW,193,0.7,6.4,64,0.00,,,0.00,Meteorologica,2013-08-20 19:47:00,
2013-08-20 15:52:00,84.5,71.3,30.13,SSW,194,1.8,5.0,64,0.00,,,0.00,Meteorologica,2013-08-20 19:52:00,
2013-08-20 15:57:00,84.5,71.8,30.13,SSW,204,4.0,4.0,65,0.00,,,0.00,Meteorologica,2013-08-20 19:57:00,
2013-08-20 16:02:00,84.4,71.2,30.13,South,190,2.4,6.3,64,0.00,,,0.00,Meteorologica,2013-08-20 20:02:00,
2013-08-20 16:07:00,84.5,70.9,30.12,SSE,149,1.1,5.4,63,0.00,,,0.00,Meteorologica,2013-08-20 20:07:00,
2013-08-20 16:12:00,84.5,71.5,30.12,SSW,200,1.9,4.7,64,0.00,,,0.00,Meteorologica,2013-08-20 20:12:00,
2013-08-20 16:17:00,84.3,71.4,30.12,SSW,201,3.1,3.1,64,0.00,,,0.00,Meteorologica,2013-08-20 20:17:00,
2013-08-20 16:22:00,84.3,71.2,30.12,SSW,210,3.1,6.4,64,0.00,,,0.00,Meteorologica,2013-08-20 20:22:00,
2013-08-20 16:27:00,84.2,71.4,30.12,SSE,158,0.2,6.7,65,0.00,,,0.00,Meteorologica,2013-08-20 20:27:00,
2013-08-20 16:32:00,83.8,72.2,30.12,ESE,114,1.9,4.6,67,0.00,,,0.00,Meteorologica,2013-08-20 20:32:00,
2013-08-20 16:37:00,83.5,72.4,30.13,SSW,208,3.6,5.5,68,0.00,,,0.00,Meteorologica,2013-08-20 20:37:00,
2013-08-20 16:42:00,83.4,71.6,30.12,SSW,196,1.6,5.9,67,0.00,,,0.00,Meteorologica,2013-08-20 20:42:00,
2013-08-20 16:47:00,83.4,71.7,30.13,East,90,0.1,6.4,67,0.00,,,0.00,Meteorologica,2013-08-20 20:47:00,
2013-08-20 16:52:00,83.3,72.1,30.13,East,90,0.0,4.2,68,0.00,,,0.00,Meteorologica,2013-08-20 20:52:00,
2013-08-20 16:57:00,83.2,72.6,30.12,East,90,0.0,0.0,70,0.00,,,0.00,Meteorologica,2013-08-20 20:57:00,
2013-08-20 17:02:00,82.8,73.9,30.13,East,90,0.0,0.0,74,0.00,,,0.00,Meteorologica,2013-08-20 21:02:00,
2013-08-20 17:07:00,82.2,72.8,30.13,East,98,0.8,0.0,72,0.00,,,0.00,Meteorologica,2013-08-20 21:07:00,
2013-08-20 17:12:00,81.5,73.1,30.13,NE,56,0.0,1.9,75,0.00,,,0.00,Meteorologica,2013-08-20 21:12:00,
2013-08-20 17:17:00,81.1,74.1,30.12,NNE,29,0.0,1.9,79,0.00,,,0.00,Meteorologica,2013-08-20 21:17:00,
2013-08-20 17:22:00,80.7,73.7,30.12,West,272,0.0,1.4,79,0.00,,,0.00,Meteorologica,2013-08-20 21:22:00,
2013-08-20 17:28:00,80.7,73.9,30.12,East,88,0.0,3.8,79,0.00,,,0.00,Meteorologica,2013-08-20 21:28:00,
2013-08-20 17:33:00,80.4,73.6,30.12,East,88,0.0,0.0,79,0.00,,,0.00,Meteorologica,2013-08-20 21:33:00,
2013-08-20 17:38:00,80.4,74.7,30.12,East,88,0.0,0.0,82,0.00,,,0.00,Meteorologica,2013-08-20 21:38:00,
2013-08-20 17:43:00,80.5,76.4,30.13,SSW,210,1.4,2.4,86,0.00,,,0.00,Meteorologica,2013-08-20 21:43:00,
2013-08-20 17:48:00,80.4,76.9,30.12,SW,234,0.0,1.6,89,0.00,,,0.00,Meteorologica,2013-08-20 21:48:00,
2013-08-20 17:53:00,80.3,77.0,30.12,SW,234,0.0,0.0,89,0.00,,,0.00,Meteorologica,2013-08-20 21:53:00,
2013-08-20 17:58:00,80.5,77.8,30.12,SW,234,0.0,0.0,91,0.00,,,0.00,Meteorologica,2013-08-20 21:58:00,
2013-08-20 18:03:00,80.3,78.0,30.12,NE,53,0.0,2.7,92,0.00,,,0.00,Meteorologica,2013-08-20 22:03:00,
2013-08-20 18:08:00,80.1,78.1,30.12,NE,53,0.0,0.0,94,0.00,,,0.00,Meteorologica,2013-08-20 22:08:00,
2013-08-20 18:13:00,80.1,78.9,30.12,NE,53,0.0,0.0,96,0.00,,,0.00,Meteorologica,2013-08-20 22:13:00,
2013-08-20 18:18:00,80.0,78.8,30.12,NE,53,0.0,0.0,96,0.00,,,0.00,Meteorologica,2013-08-20 22:18:00,
2013-08-20 18:23:00,80.0,79.6,30.12,NE,53,0.0,0.0,98,0.00,,,0.00,Meteorologica,2013-08-20 22:23:00,
2013-08-20 18:28:00,79.9,78.3,30.12,NE,53,0.0,0.0,95,0.00,,,0.00,Meteorologica,2013-08-20 22:28:00,
2013-08-20 18:34:00,79.9,77.5,30.12,NE,53,0.0,0.0,92,0.00,,,0.00,Meteorologica,2013-08-20 22:34:00,
2013-08-20 18:39:00,79.9,78.0,30.13,NE,53,0.0,0.0,93,0.00,,,0.00,Meteorologica,2013-08-20 22:39:00,
2013-08-20 18:44:00,80.1,77.4,30.12,South,181,1.1,3.0,91,0.00,,,0.00,Meteorologica,2013-08-20 22:44:00,
2013-08-20 18:49:00,80.1,77.5,30.12,SSE,159,0.0,3.8,91,0.00,,,0.00,Meteorologica,2013-08-20 22:49:00,
2013-08-20 18:54:00,80.1,77.9,30.12,WSW,237,0.3,2.8,93,0.00,,,0.00,Meteorologica,2013-08-20 22:54:00,
2013-08-20 19:00:00,80.2,78.0,30.12,SW,221,0.0,2.5,93,0.00,,,0.00,Meteorologica,2013-08-20 23:00:00,
2013-08-20 19:05:00,80.2,78.0,30.12,SW,215,0.2,3.2,93,0.00,,,0.00,Meteorologica,2013-08-20 23:05:00,
2013-08-20 19:10:00,80.2,78.0,30.12,SSW,206,1.7,1.7,93,0.00,,,0.00,Meteorologica,2013-08-20 23:10:00,
2013-08-20 19:15:00,80.1,77.6,30.12,SW,221,0.1,2.5,92,0.00,,,0.00,Meteorologica,2013-08-20 23:15:00,
2013-08-20 19:20:00,80.0,78.0,30.13,SSW,205,1.3,3.3,93,0.00,,,0.00,Meteorologica,2013-08-20 23:20:00,
2013-08-20 19:25:00,80.0,78.4,30.13,South,169,0.0,1.7,94,0.00,,,0.00,Meteorologica,2013-08-20 23:25:00,
2013-08-20 19:30:00,79.9,78.7,30.13,South,169,0.0,1.4,96,0.00,,,0.00,Meteorologica,2013-08-20 23:30:00,
2013-08-20 19:35:00,79.9,78.4,30.13,SSW,211,2.0,2.3,95,0.00,,,0.00,Meteorologica,2013-08-20 23:35:00,
2013-08-20 19:40:00,79.8,78.1,30.14,SSW,203,1.3,3.0,94,0.00,,,0.00,Meteorologica,2013-08-20 23:40:00,
2013-08-20 19:45:00,79.7,78.4,30.14,SE,145,0.8,3.7,96,0.00,,,0.00,Meteorologica,2013-08-20 23:45:00,
2013-08-20 19:50:00,79.5,78.7,30.14,WSW,248,0.0,2.1,97,0.00,,,0.00,Meteorologica,2013-08-20 23:50:00,
2013-08-20 19:55:00,79.3,79.0,30.14,WSW,248,0.0,0.0,98,0.00,,,0.00,Meteorologica,2013-08-20 23:55:00,
2013-08-20 20:00:00,79.3,79.2,30.14,WSW,248,0.0,0.0,99,0.00,,,0.00,Meteorologica,2013-08-21 00:00:00,
2013-08-20 20:06:00,79.1,79.1,30.14,WSW,248,0.0,0.0,100,0.00,,,0.00,Meteorologica,2013-08-21 00:06:00,
2013-08-20 20:11:00,78.9,78.9,30.14,WSW,248,0.0,0.0,100,0.00,,,0.00,Meteorologica,2013-08-21 00:11:00,
2013-08-20 20:16:00,78.8,78.8,30.14,WSW,248,0.0,0.0,100,0.00,,,0.00,Meteorologica,2013-08-21 00:16:00,
2013-08-20 20:21:00,78.7,78.7,30.14,SW,214,0.3,0.0,100,0.00,,,0.00,Meteorologica,2013-08-21 00:21:00,
2013-08-20 20:26:00,78.4,78.4,30.14,South,170,0.0,2.2,100,0.00,,,0.00,Meteorologica,2013-08-21 00:26:00,
2013-08-20 20:31:00,78.2,78.2,30.14,South,170,0.0,0.0,100,0.00,,,0.00,Meteorologica,2013-08-21 00:31:00,
2013-08-20 20:36:00,78.3,78.3,30.14,South,170,0.0,0.0,100,0.00,,,0.00,Meteorologica,2013-08-21 00:36:00,
2013-08-20 20:41:00,78.0,78.0,30.14,South,170,0.0,0.0,100,0.00,,,0.00,Meteorologica,2013-08-21 00:41:00,
2013-08-20 21:00:00,77.1,77.1,30.14,South,170,0.0,0.0,100,0.00,,,0.00,Meteorologica,2013-08-21 01:00:00,
2013-08-20 21:05:00,77.0,77.0,30.14,South,170,0.0,0.0,100,0.00,,,0.00,Meteorologica,2013-08-21 01:05:00,
2013-08-20 21:10:00,76.8,76.8,30.15,South,170,0.0,0.0,100,0.00,,,0.00,Meteorologica,2013-08-21 01:10:00,
2013-08-20 21:15:00,76.6,76.6,30.15,South,170,0.0,0.0,100,0.00,,,0.00,Meteorologica,2013-08-21 01:15:00,
2013-08-20 21:20:00,76.4,76.4,30.15,South,170,0.0,0.0,100,0.00,,,0.00,Meteorologica,2013-08-21 01:20:00,
2013-08-20 21:25:00,76.3,76.3,30.15,South,170,0.0,0.0,100,0.00,,,0.00,Meteorologica,2013-08-21 01:25:00,
2013-08-20 21:30:00,76.2,76.2,30.15,South,170,0.0,0.0,100,0.00,,,0.00,Meteorologica,2013-08-21 01:30:00,
2013-08-20 21:36:00,76.0,76.0,30.16,South,170,0.0,0.0,100,0.00,,,0.00,Meteorologica,2013-08-21 01:36:00,
2013-08-20 21:41:00,75.8,75.8,30.16,South,170,0.0,0.0,100,0.00,,,0.00,Meteorologica,2013-08-21 01:41:00,
2013-08-20 21:46:00,75.7,75.7,30.16,South,170,0.0,0.0,100,0.00,,,0.00,Meteorologica,2013-08-21 01:46:00,
2013-08-20 21:52:00,75.6,75.6,30.16,South,170,0.0,0.0,100,0.00,,,0.00,Meteorologica,2013-08-21 01:52:00,
2013-08-20 21:57:00,75.7,75.7,30.16,South,170,0.0,0.0,100,0.00,,,0.00,Meteorologica,2013-08-21 01:57:00,
2013-08-20 22:02:00,75.3,75.3,30.16,South,170,0.0,0.0,100,0.00,,,0.00,Meteorologica,2013-08-21 02:02:00,
2013-08-20 22:07:00,75.3,75.3,30.16,South,170,0.0,0.0,100,0.00,,,0.00,Meteorologica,2013-08-21 02:07:00,
2013-08-20 22:12:00,75.1,75.1,30.16,South,170,0.0,0.0,100,0.00,,,0.00,Meteorologica,2013-08-21 02:12:00,
2013-08-20 22:18:00,75.1,75.2,30.17,South,170,0.0,0.0,100,0.00,,,0.00,Meteorologica,2013-08-21 02:18:00,
2013-08-20 22:23:00,74.9,74.9,30.17,South,170,0.0,0.0,100,0.00,,,0.00,Meteorologica,2013-08-21 02:23:00,
2013-08-20 22:29:00,75.0,75.0,30.17,South,170,0.0,0.0,100,0.00,,,0.00,Meteorologica,2013-08-21 02:29:00,
2013-08-20 22:34:00,74.8,74.8,30.17,South,170,0.0,0.0,100,0.00,,,0.00,Meteorologica,2013-08-21 02:34:00,
2013-08-20 22:39:00,74.8,74.8,30.17,South,170,0.0,0.0,100,0.00,,,0.00,Meteorologica,2013-08-21 02:39:00,
2013-08-20 22:44:00,74.7,74.7,30.18,South,170,0.0,0.0,100,0.00,,,0.00,Meteorologica,2013-08-21 02:44:00,
2013-08-20 22:49:00,74.6,74.6,30.18,South,170,0.0,0.0,100,0.00,,,0.00,Meteorologica,2013-08-21 02:49:00,
2013-08-20 22:54:00,74.6,74.6,30.19,South,170,0.0,0.0,100,0.00,,,0.00,Meteorologica,2013-08-21 02:54:00,
2013-08-20 23:00:00,74.5,74.5,30.19,South,170,0.0,0.0,100,0.00,,,0.00,Meteorologica,2013-08-21 03:00:00,
2013-08-20 23:05:00,74.4,74.4,30.19,South,170,0.0,0.0,100,0.00,,,0.00,Meteorologica,2013-08-21 03:05:00,
2013-08-20 23:10:00,74.3,74.3,30.19,South,170,0.0,0.0,100,0.00,,,0.00,Meteorologica,2013-08-21 03:10:00,
2013-08-20 23:16:00,74.2,74.2,30.19,South,170,0.0,0.0,100,0.00,,,0.00,Meteorologica,2013-08-21 03:16:00,
2013-08-20 23:21:00,74.2,74.2,30.19,South,170,0.0,0.0,100,0.00,,,0.00,Meteorologica,2013-08-21 03:21:00,
2013-08-20 23:26:00,74.1,74.1,30.19,South,170,0.0,0.0,100,0.00,,,0.00,Meteorologica,2013-08-21 03:26:00,
2013-08-20 23:31:00,74.0,74.0,30.19,South,170,0.0,0.0,100,0.00,,,0.00,Meteorologica,2013-08-21 03:31:00,
2013-08-20 23:37:00,74.0,74.0,30.19,South,170,0.0,0.0,100,0.00,,,0.00,Meteorologica,2013-08-21 03:37:00,
2013-08-20 23:42:00,73.9,73.9,30.19,South,170,0.0,0.0,100,0.00,,,0.00,Meteorologica,2013-08-21 03:42:00,
2013-08-20 23:48:00,73.8,73.8,30.19,South,170,0.0,0.0,100,0.00,,,0.00,Meteorologica,2013-08-21 03:48:00,
2013-08-20 23:53:00,73.7,73.7,30.19,South,170,0.0,0.0,100,0.00,,,0.00,Meteorologica,2013-08-21 03:53:00,